sensor_id;sensor_type;location;lat;lon;timestamp;pressure;altitude;pressure_sealevel;temperature;humidity
24752;BME280;27246;52.376;4.628;2023-02-07T00:02:43;103936.56;;;3.63;79.08
24752;BME280;27246;52.376;4.628;2023-02-07T00:07:45;103937.28;;;3.66;79.64
24752;BME280;27246;52.376;4.628;2023-02-07T00:12:47;103929.56;;;3.77;79.16
24752;BME280;27246;52.376;4.628;2023-02-07T00:17:50;103929.50;;;3.79;78.62
24752;BME280;27246;52.376;4.628;2023-02-07T00:22:52;103924.75;;;3.62;78.49
24752;BME280;27246;52.376;4.628;2023-02-07T00:27:55;103916.38;;;3.45;79.68
24752;BME280;27246;52.376;4.628;2023-02-07T00:32:57;103920.94;;;3.44;79.55
24752;BME280;27246;52.376;4.628;2023-02-07T00:37:59;103912.34;;;3.55;79.54
24752;BME280;27246;52.376;4.628;2023-02-07T00:43:00;103908.69;;;3.54;79.27
24752;BME280;27246;52.376;4.628;2023-02-07T00:48:02;103916.06;;;3.52;79.26
24752;BME280;27246;52.376;4.628;2023-02-07T00:53:04;103904.84;;;3.60;79.76
24752;BME280;27246;52.376;4.628;2023-02-07T00:58:06;103911.69;;;3.48;79.20
24752;BME280;27246;52.376;4.628;2023-02-07T01:03:07;103910.34;;;3.58;79.13
24752;BME280;27246;52.376;4.628;2023-02-07T01:08:10;103913.28;;;3.54;78.69
24752;BME280;27246;52.376;4.628;2023-02-07T01:13:14;103897.63;;;3.59;78.72
24752;BME280;27246;52.376;4.628;2023-02-07T01:18:16;103899.53;;;3.57;78.42
24752;BME280;27246;52.376;4.628;2023-02-07T01:23:18;103907.25;;;3.46;78.86
24752;BME280;27246;52.376;4.628;2023-02-07T01:28:20;103909.66;;;3.53;78.57
24752;BME280;27246;52.376;4.628;2023-02-07T01:33:22;103920.19;;;3.63;78.73
24752;BME280;27246;52.376;4.628;2023-02-07T01:38:24;103907.75;;;3.55;78.35
24752;BME280;27246;52.376;4.628;2023-02-07T01:43:25;103909.53;;;3.34;78.47
24752;BME280;27246;52.376;4.628;2023-02-07T01:48:33;103922.63;;;3.01;79.53
24752;BME280;27246;52.376;4.628;2023-02-07T01:53:37;103904.09;;;3.11;79.90
24752;BME280;27246;52.376;4.628;2023-02-07T01:58:40;103909.31;;;3.17;79.34
24752;BME280;27246;52.376;4.628;2023-02-07T02:03:44;103919.47;;;3.35;78.63
24752;BME280;27246;52.376;4.628;2023-02-07T02:08:47;103921.94;;;3.41;78.92
24752;BME280;27246;52.376;4.628;2023-02-07T02:14:15;103910.78;;;3.48;79.12
24752;BME280;27246;52.376;4.628;2023-02-07T02:25:27;103907.13;;;3.49;79.51
24752;BME280;27246;52.376;4.628;2023-02-07T02:41:32;103925.13;;;3.31;79.36
24752;BME280;27246;52.376;4.628;2023-02-07T02:46:41;103916.44;;;3.43;79.13
24752;BME280;27246;52.376;4.628;2023-02-07T02:51:48;103911.06;;;3.41;79.63
24752;BME280;27246;52.376;4.628;2023-02-07T02:56:57;103908.53;;;3.37;79.39
24752;BME280;27246;52.376;4.628;2023-02-07T03:02:48;103899.56;;;3.33;79.55
24752;BME280;27246;52.376;4.628;2023-02-07T03:08:21;103902.50;;;3.29;80.51
24752;BME280;27246;52.376;4.628;2023-02-07T03:13:31;103892.38;;;3.32;80.77
24752;BME280;27246;52.376;4.628;2023-02-07T03:19:14;103884.47;;;3.03;80.33
24752;BME280;27246;52.376;4.628;2023-02-07T03:24:22;103888.94;;;3.04;80.16
24752;BME280;27246;52.376;4.628;2023-02-07T03:29:27;103890.13;;;2.73;80.50
24752;BME280;27246;52.376;4.628;2023-02-07T03:40:25;103880.25;;;2.70;80.92
24752;BME280;27246;52.376;4.628;2023-02-07T03:45:28;103881.03;;;2.74;80.43
24752;BME280;27246;52.376;4.628;2023-02-07T03:50:30;103871.97;;;2.73;79.90
24752;BME280;27246;52.376;4.628;2023-02-07T03:55:31;103881.88;;;2.76;80.02
24752;BME280;27246;52.376;4.628;2023-02-07T04:00:34;103880.28;;;2.94;80.15
24752;BME280;27246;52.376;4.628;2023-02-07T04:05:35;103894.03;;;2.89;79.76
24752;BME280;27246;52.376;4.628;2023-02-07T04:10:37;103892.97;;;2.93;80.05
24752;BME280;27246;52.376;4.628;2023-02-07T04:15:39;103888.34;;;2.95;79.76
24752;BME280;27246;52.376;4.628;2023-02-07T04:20:42;103889.44;;;2.91;79.98
24752;BME280;27246;52.376;4.628;2023-02-07T04:25:43;103876.41;;;2.99;79.87
24752;BME280;27246;52.376;4.628;2023-02-07T04:30:48;103876.59;;;2.95;79.86
24752;BME280;27246;52.376;4.628;2023-02-07T04:35:57;103866.88;;;2.88;80.04
24752;BME280;27246;52.376;4.628;2023-02-07T04:41:02;103877.47;;;2.95;79.99
24752;BME280;27246;52.376;4.628;2023-02-07T04:46:05;103875.88;;;2.90;80.57
24752;BME280;27246;52.376;4.628;2023-02-07T04:51:07;103871.09;;;2.96;80.96
24752;BME280;27246;52.376;4.628;2023-02-07T04:56:09;103868.38;;;2.96;82.63
24752;BME280;27246;52.376;4.628;2023-02-07T05:01:10;103877.13;;;3.05;83.42
24752;BME280;27246;52.376;4.628;2023-02-07T05:06:12;103876.88;;;3.11;83.77
24752;BME280;27246;52.376;4.628;2023-02-07T05:11:14;103870.31;;;2.93;84.88
24752;BME280;27246;52.376;4.628;2023-02-07T05:16:16;103878.19;;;2.77;85.79
24752;BME280;27246;52.376;4.628;2023-02-07T05:21:18;103885.41;;;2.78;86.44
24752;BME280;27246;52.376;4.628;2023-02-07T05:26:20;103887.97;;;2.83;87.30
24752;BME280;27246;52.376;4.628;2023-02-07T05:31:21;103872.84;;;2.97;86.75
24752;BME280;27246;52.376;4.628;2023-02-07T05:36:43;103877.03;;;2.84;87.49
24752;BME280;27246;52.376;4.628;2023-02-07T05:41:45;103886.84;;;2.88;87.41
24752;BME280;27246;52.376;4.628;2023-02-07T05:46:47;103875.59;;;2.74;87.36
24752;BME280;27246;52.376;4.628;2023-02-07T05:51:48;103880.91;;;2.77;87.50
24752;BME280;27246;52.376;4.628;2023-02-07T05:56:50;103876.59;;;2.71;87.59
24752;BME280;27246;52.376;4.628;2023-02-07T06:01:52;103879.50;;;2.67;87.47
24752;BME280;27246;52.376;4.628;2023-02-07T06:06:53;103889.34;;;2.69;87.53
24752;BME280;27246;52.376;4.628;2023-02-07T06:11:55;103888.16;;;2.53;87.45
24752;BME280;27246;52.376;4.628;2023-02-07T06:16:57;103890.78;;;2.31;88.62
24752;BME280;27246;52.376;4.628;2023-02-07T06:21:59;103871.13;;;2.48;88.86
24752;BME280;27246;52.376;4.628;2023-02-07T06:27:01;103882.16;;;2.43;87.88
24752;BME280;27246;52.376;4.628;2023-02-07T06:32:03;103892.72;;;2.27;87.81
24752;BME280;27246;52.376;4.628;2023-02-07T06:37:05;103891.38;;;2.39;87.79
24752;BME280;27246;52.376;4.628;2023-02-07T06:42:07;103891.28;;;2.42;87.22
24752;BME280;27246;52.376;4.628;2023-02-07T06:47:09;103900.38;;;2.41;87.48
24752;BME280;27246;52.376;4.628;2023-02-07T06:52:10;103897.66;;;2.41;87.01
24752;BME280;27246;52.376;4.628;2023-02-07T06:57:12;103918.53;;;2.40;86.76
24752;BME280;27246;52.376;4.628;2023-02-07T07:02:14;103920.38;;;2.40;87.42
24752;BME280;27246;52.376;4.628;2023-02-07T07:07:16;103913.03;;;2.17;87.97
24752;BME280;27246;52.376;4.628;2023-02-07T07:12:17;103921.03;;;1.95;87.69
24752;BME280;27246;52.376;4.628;2023-02-07T07:17:19;103938.59;;;1.85;88.45
24752;BME280;27246;52.376;4.628;2023-02-07T07:22:21;103931.69;;;1.74;89.70
24752;BME280;27246;52.376;4.628;2023-02-07T07:27:22;103931.91;;;1.68;90.44
24752;BME280;27246;52.376;4.628;2023-02-07T07:32:24;103938.78;;;1.80;90.18
24752;BME280;27246;52.376;4.628;2023-02-07T07:37:35;103940.94;;;1.97;88.98
24752;BME280;27246;52.376;4.628;2023-02-07T07:42:37;103938.97;;;2.00;89.05
24752;BME280;27246;52.376;4.628;2023-02-07T07:47:57;103938.13;;;1.72;89.62
24752;BME280;27246;52.376;4.628;2023-02-07T07:52:59;103942.16;;;1.87;89.10
24752;BME280;27246;52.376;4.628;2023-02-07T07:58:01;103942.66;;;1.73;89.58
24752;BME280;27246;52.376;4.628;2023-02-07T08:03:03;103941.53;;;1.50;90.53
24752;BME280;27246;52.376;4.628;2023-02-07T08:08:05;103942.00;;;1.36;92.27
24752;BME280;27246;52.376;4.628;2023-02-07T08:13:07;103939.34;;;1.63;91.58
24752;BME280;27246;52.376;4.628;2023-02-07T08:18:09;103942.06;;;1.63;91.78
24752;BME280;27246;52.376;4.628;2023-02-07T08:23:10;103952.47;;;1.49;92.17
24752;BME280;27246;52.376;4.628;2023-02-07T08:28:12;103951.97;;;1.64;92.12
24752;BME280;27246;52.376;4.628;2023-02-07T08:33:15;103953.41;;;1.48;92.21
24752;BME280;27246;52.376;4.628;2023-02-07T08:38:17;103959.91;;;1.70;93.03
24752;BME280;27246;52.376;4.628;2023-02-07T08:43:20;103955.53;;;1.66;91.52
24752;BME280;27246;52.376;4.628;2023-02-07T08:48:22;103947.72;;;1.55;91.50
24752;BME280;27246;52.376;4.628;2023-02-07T08:53:24;103945.56;;;1.38;92.50
24752;BME280;27246;52.376;4.628;2023-02-07T08:58:25;103945.16;;;1.51;93.29
24752;BME280;27246;52.376;4.628;2023-02-07T09:03:28;103944.56;;;1.69;91.86
24752;BME280;27246;52.376;4.628;2023-02-07T09:08:30;103952.56;;;1.74;90.70
24752;BME280;27246;52.376;4.628;2023-02-07T09:13:31;103942.28;;;1.84;91.26
24752;BME280;27246;52.376;4.628;2023-02-07T09:18:33;103951.41;;;2.09;89.91
24752;BME280;27246;52.376;4.628;2023-02-07T09:23:35;103946.50;;;1.92;87.97
24752;BME280;27246;52.376;4.628;2023-02-07T09:28:37;103943.84;;;1.91;88.86
24752;BME280;27246;52.376;4.628;2023-02-07T09:33:40;103943.13;;;2.12;88.25
24752;BME280;27246;52.376;4.628;2023-02-07T09:38:42;103938.81;;;2.32;88.01
24752;BME280;27246;52.376;4.628;2023-02-07T09:43:55;103946.44;;;2.20;85.25
24752;BME280;27246;52.376;4.628;2023-02-07T09:49:04;103940.44;;;2.11;85.61
24752;BME280;27246;52.376;4.628;2023-02-07T09:54:17;103948.09;;;1.99;86.46
24752;BME280;27246;52.376;4.628;2023-02-07T09:59:47;103956.44;;;2.20;86.27
24752;BME280;27246;52.376;4.628;2023-02-07T10:04:53;103967.69;;;2.36;85.75
24752;BME280;27246;52.376;4.628;2023-02-07T10:09:57;103963.09;;;2.38;84.49
24752;BME280;27246;52.376;4.628;2023-02-07T10:15:09;103965.28;;;2.27;83.60
24752;BME280;27246;52.376;4.628;2023-02-07T10:25:42;103973.88;;;2.14;81.47
24752;BME280;27246;52.376;4.628;2023-02-07T10:30:51;103973.66;;;2.20;81.26
24752;BME280;27246;52.376;4.628;2023-02-07T10:35:55;103978.47;;;2.12;82.01
24752;BME280;27246;52.376;4.628;2023-02-07T10:41:05;103974.34;;;2.52;81.22
24752;BME280;27246;52.376;4.628;2023-02-07T10:46:13;103982.50;;;3.03;79.75
24752;BME280;27246;52.376;4.628;2023-02-07T10:51:30;103981.44;;;3.07;77.69
24752;BME280;27246;52.376;4.628;2023-02-07T10:56:37;103981.34;;;3.55;74.64
24752;BME280;27246;52.376;4.628;2023-02-07T11:01:52;103983.13;;;3.78;74.81
24752;BME280;27246;52.376;4.628;2023-02-07T11:07:03;103986.84;;;3.99;74.26
24752;BME280;27246;52.376;4.628;2023-02-07T11:12:22;103983.59;;;4.32;71.33
24752;BME280;27246;52.376;4.628;2023-02-07T11:17:26;103977.13;;;3.92;72.39
24752;BME280;27246;52.376;4.628;2023-02-07T11:22:28;103972.00;;;3.63;72.46
24752;BME280;27246;52.376;4.628;2023-02-07T11:27:38;103976.44;;;3.41;74.87
24752;BME280;27246;52.376;4.628;2023-02-07T11:32:41;103975.50;;;3.43;73.25
24752;BME280;27246;52.376;4.628;2023-02-07T11:37:57;103962.41;;;3.74;71.84
24752;BME280;27246;52.376;4.628;2023-02-07T11:43:01;103953.13;;;4.00;70.28
24752;BME280;27246;52.376;4.628;2023-02-07T11:48:04;103949.25;;;4.06;69.64
24752;BME280;27246;52.376;4.628;2023-02-07T11:53:26;103943.44;;;4.15;70.09
24752;BME280;27246;52.376;4.628;2023-02-07T11:58:41;103940.47;;;3.99;67.63
24752;BME280;27246;52.376;4.628;2023-02-07T12:03:59;103935.78;;;3.59;66.55
24752;BME280;27246;52.376;4.628;2023-02-07T12:09:04;103931.22;;;3.81;66.90
24752;BME280;27246;52.376;4.628;2023-02-07T12:14:23;103916.34;;;3.89;66.24
24752;BME280;27246;52.376;4.628;2023-02-07T12:19:34;103911.63;;;4.14;64.08
24752;BME280;27246;52.376;4.628;2023-02-07T12:24:42;103916.47;;;4.08;64.24
24752;BME280;27246;52.376;4.628;2023-02-07T12:29:53;103910.66;;;3.95;62.17
24752;BME280;27246;52.376;4.628;2023-02-07T12:35:00;103914.22;;;3.97;63.48
24752;BME280;27246;52.376;4.628;2023-02-07T12:45:17;103914.06;;;4.00;62.53
24752;BME280;27246;52.376;4.628;2023-02-07T12:50:41;103908.88;;;3.94;61.50
24752;BME280;27246;52.376;4.628;2023-02-07T12:55:55;103903.91;;;4.04;62.11
24752;BME280;27246;52.376;4.628;2023-02-07T13:01:17;103912.00;;;4.27;61.31
24752;BME280;27246;52.376;4.628;2023-02-07T13:06:34;103902.06;;;4.04;60.08
24752;BME280;27246;52.376;4.628;2023-02-07T13:23:03;103880.25;;;4.25;66.27
24752;BME280;27246;52.376;4.628;2023-02-07T13:33:37;103869.50;;;4.21;64.82
24752;BME280;27246;52.376;4.628;2023-02-07T13:38:53;103869.59;;;4.18;64.56
24752;BME280;27246;52.376;4.628;2023-02-07T13:44:21;103856.84;;;4.39;63.51
24752;BME280;27246;52.376;4.628;2023-02-07T14:05:24;103869.69;;;4.37;60.58
24752;BME280;27246;52.376;4.628;2023-02-07T14:10:51;103854.19;;;4.38;60.29
24752;BME280;27246;52.376;4.628;2023-02-07T14:16:01;103853.66;;;4.30;61.30
24752;BME280;27246;52.376;4.628;2023-02-07T14:31:54;103857.19;;;4.32;63.40
24752;BME280;27246;52.376;4.628;2023-02-07T14:36:56;103858.09;;;4.32;61.88
24752;BME280;27246;52.376;4.628;2023-02-07T14:42:14;103855.63;;;4.26;61.63
24752;BME280;27246;52.376;4.628;2023-02-07T14:47:22;103845.47;;;4.30;60.97
24752;BME280;27246;52.376;4.628;2023-02-07T14:52:29;103847.16;;;4.32;60.48
24752;BME280;27246;52.376;4.628;2023-02-07T14:57:43;103852.88;;;4.47;61.01
24752;BME280;27246;52.376;4.628;2023-02-07T15:02:57;103849.19;;;4.48;60.30
24752;BME280;27246;52.376;4.628;2023-02-07T15:13:05;103841.81;;;4.50;60.96
24752;BME280;27246;52.376;4.628;2023-02-07T15:18:18;103841.44;;;4.57;60.06
24752;BME280;27246;52.376;4.628;2023-02-07T15:23:21;103847.88;;;4.56;59.35
24752;BME280;27246;52.376;4.628;2023-02-07T15:28:29;103849.09;;;4.49;60.04
24752;BME280;27246;52.376;4.628;2023-02-07T15:33:54;103847.75;;;4.59;59.88
24752;BME280;27246;52.376;4.628;2023-02-07T15:38:58;103851.84;;;4.49;58.48
24752;BME280;27246;52.376;4.628;2023-02-07T15:44:02;103852.00;;;4.46;58.33
24752;BME280;27246;52.376;4.628;2023-02-07T15:49:06;103851.72;;;4.52;56.83
24752;BME280;27246;52.376;4.628;2023-02-07T15:54:14;103850.22;;;4.45;57.02
24752;BME280;27246;52.376;4.628;2023-02-07T15:59:20;103853.56;;;4.71;57.06
24752;BME280;27246;52.376;4.628;2023-02-07T16:04:24;103854.22;;;4.57;57.09
24752;BME280;27246;52.376;4.628;2023-02-07T16:09:36;103864.38;;;4.53;57.06
24752;BME280;27246;52.376;4.628;2023-02-07T16:14:39;103866.41;;;4.29;58.17
24752;BME280;27246;52.376;4.628;2023-02-07T16:19:44;103867.31;;;4.30;58.10
24752;BME280;27246;52.376;4.628;2023-02-07T16:24:47;103875.97;;;4.39;58.54
24752;BME280;27246;52.376;4.628;2023-02-07T16:29:52;103870.22;;;4.46;58.42
24752;BME280;27246;52.376;4.628;2023-02-07T16:34:55;103880.50;;;4.59;58.10
24752;BME280;27246;52.376;4.628;2023-02-07T16:40:00;103887.84;;;4.57;58.16
24752;BME280;27246;52.376;4.628;2023-02-07T16:45:02;103884.81;;;4.45;59.00
24752;BME280;27246;52.376;4.628;2023-02-07T16:50:12;103885.97;;;4.59;59.16
24752;BME280;27246;52.376;4.628;2023-02-07T16:55:19;103882.28;;;4.60;58.84
24752;BME280;27246;52.376;4.628;2023-02-07T17:00:23;103877.66;;;4.42;60.66
24752;BME280;27246;52.376;4.628;2023-02-07T17:05:25;103871.63;;;4.54;60.08
24752;BME280;27246;52.376;4.628;2023-02-07T17:10:29;103874.38;;;4.34;60.31
24752;BME280;27246;52.376;4.628;2023-02-07T17:15:32;103874.50;;;4.31;60.75
24752;BME280;27246;52.376;4.628;2023-02-07T17:20:34;103876.97;;;4.37;61.28
24752;BME280;27246;52.376;4.628;2023-02-07T17:25:35;103868.72;;;4.38;61.29
24752;BME280;27246;52.376;4.628;2023-02-07T17:30:39;103876.97;;;4.37;61.50
24752;BME280;27246;52.376;4.628;2023-02-07T17:35:41;103880.66;;;4.36;62.48
24752;BME280;27246;52.376;4.628;2023-02-07T17:40:43;103884.44;;;4.33;62.58
24752;BME280;27246;52.376;4.628;2023-02-07T17:45:45;103883.41;;;4.36;63.07
24752;BME280;27246;52.376;4.628;2023-02-07T17:50:46;103886.94;;;4.38;63.08
24752;BME280;27246;52.376;4.628;2023-02-07T17:55:49;103881.41;;;4.39;63.29
24752;BME280;27246;52.376;4.628;2023-02-07T18:00:51;103891.59;;;4.36;63.86
24752;BME280;27246;52.376;4.628;2023-02-07T18:05:52;103889.06;;;4.31;63.56
24752;BME280;27246;52.376;4.628;2023-02-07T18:10:57;103888.44;;;4.25;64.69
24752;BME280;27246;52.376;4.628;2023-02-07T18:16:02;103892.94;;;4.26;65.05
24752;BME280;27246;52.376;4.628;2023-02-07T18:21:05;103889.53;;;4.20;65.36
24752;BME280;27246;52.376;4.628;2023-02-07T18:26:09;103882.31;;;4.19;65.55
24752;BME280;27246;52.376;4.628;2023-02-07T18:31:14;103878.75;;;4.17;65.23
24752;BME280;27246;52.376;4.628;2023-02-07T18:36:18;103889.94;;;4.11;65.93
24752;BME280;27246;52.376;4.628;2023-02-07T18:41:20;103887.41;;;4.07;66.55
24752;BME280;27246;52.376;4.628;2023-02-07T18:46:24;103890.22;;;4.05;66.58
24752;BME280;27246;52.376;4.628;2023-02-07T18:51:27;103885.84;;;4.01;67.06
24752;BME280;27246;52.376;4.628;2023-02-07T18:56:30;103884.22;;;3.97;66.97
24752;BME280;27246;52.376;4.628;2023-02-07T19:01:32;103883.78;;;3.86;68.13
24752;BME280;27246;52.376;4.628;2023-02-07T19:06:36;103893.81;;;3.85;69.08
24752;BME280;27246;52.376;4.628;2023-02-07T19:11:38;103893.16;;;3.78;69.25
24752;BME280;27246;52.376;4.628;2023-02-07T19:16:40;103896.03;;;3.75;69.96
24752;BME280;27246;52.376;4.628;2023-02-07T19:21:42;103902.56;;;3.71;70.08
24752;BME280;27246;52.376;4.628;2023-02-07T19:26:46;103900.91;;;3.67;70.11
24752;BME280;27246;52.376;4.628;2023-02-07T19:31:48;103905.50;;;3.67;70.36
24752;BME280;27246;52.376;4.628;2023-02-07T19:36:50;103906.38;;;3.67;70.50
24752;BME280;27246;52.376;4.628;2023-02-07T19:41:53;103905.84;;;3.57;70.50
24752;BME280;27246;52.376;4.628;2023-02-07T19:46:55;103903.44;;;3.50;70.98
24752;BME280;27246;52.376;4.628;2023-02-07T19:51:56;103894.69;;;3.41;71.67
24752;BME280;27246;52.376;4.628;2023-02-07T19:56:58;103890.22;;;3.40;71.32
24752;BME280;27246;52.376;4.628;2023-02-07T20:02:00;103899.06;;;3.46;71.40
24752;BME280;27246;52.376;4.628;2023-02-07T20:07:02;103892.94;;;3.40;71.73
24752;BME280;27246;52.376;4.628;2023-02-07T20:12:04;103886.09;;;3.30;72.04
24752;BME280;27246;52.376;4.628;2023-02-07T20:17:07;103875.94;;;3.34;72.17
24752;BME280;27246;52.376;4.628;2023-02-07T20:22:08;103880.50;;;3.33;72.34
24752;BME280;27246;52.376;4.628;2023-02-07T20:27:10;103884.31;;;3.29;72.30
24752;BME280;27246;52.376;4.628;2023-02-07T20:32:12;103898.16;;;3.23;72.48
24752;BME280;27246;52.376;4.628;2023-02-07T20:37:15;103903.47;;;3.26;72.54
24752;BME280;27246;52.376;4.628;2023-02-07T20:42:17;103908.25;;;3.21;72.69
24752;BME280;27246;52.376;4.628;2023-02-07T20:47:19;103909.38;;;3.15;73.08
24752;BME280;27246;52.376;4.628;2023-02-07T20:52:21;103910.69;;;3.05;72.82
24752;BME280;27246;52.376;4.628;2023-02-07T20:57:23;103914.41;;;3.03;72.78
24752;BME280;27246;52.376;4.628;2023-02-07T21:02:25;103909.22;;;2.96;72.38
24752;BME280;27246;52.376;4.628;2023-02-07T21:07:27;103895.47;;;2.99;72.42
24752;BME280;27246;52.376;4.628;2023-02-07T21:12:29;103891.09;;;2.95;72.21
24752;BME280;27246;52.376;4.628;2023-02-07T21:17:30;103885.63;;;2.95;72.54
24752;BME280;27246;52.376;4.628;2023-02-07T21:22:32;103878.28;;;2.97;72.53
24752;BME280;27246;52.376;4.628;2023-02-07T21:27:33;103876.63;;;2.93;72.77
24752;BME280;27246;52.376;4.628;2023-02-07T21:32:35;103875.38;;;2.80;73.04
24752;BME280;27246;52.376;4.628;2023-02-07T21:37:41;103874.38;;;2.57;73.72
24752;BME280;27246;52.376;4.628;2023-02-07T21:42:43;103875.84;;;2.68;73.83
24752;BME280;27246;52.376;4.628;2023-02-07T21:47:45;103865.78;;;2.70;73.88
24752;BME280;27246;52.376;4.628;2023-02-07T21:52:46;103872.19;;;2.67;74.01
24752;BME280;27246;52.376;4.628;2023-02-07T21:57:48;103877.00;;;2.60;74.22
24752;BME280;27246;52.376;4.628;2023-02-07T22:02:52;103865.06;;;2.65;74.06
24752;BME280;27246;52.376;4.628;2023-02-07T22:08:12;103862.56;;;2.58;73.84
24752;BME280;27246;52.376;4.628;2023-02-07T22:13:14;103861.59;;;2.59;73.94
24752;BME280;27246;52.376;4.628;2023-02-07T22:18:33;103861.72;;;2.56;74.00
24752;BME280;27246;52.376;4.628;2023-02-07T22:23:47;103858.13;;;2.56;73.85
24752;BME280;27246;52.376;4.628;2023-02-07T22:28:56;103854.69;;;2.51;74.03
24752;BME280;27246;52.376;4.628;2023-02-07T22:34:15;103853.81;;;2.50;74.39
24752;BME280;27246;52.376;4.628;2023-02-07T22:39:18;103843.16;;;2.44;74.31
24752;BME280;27246;52.376;4.628;2023-02-07T22:44:20;103850.59;;;2.39;74.41
24752;BME280;27246;52.376;4.628;2023-02-07T22:49:22;103841.59;;;2.37;74.84
24752;BME280;27246;52.376;4.628;2023-02-07T22:54:25;103845.91;;;2.43;74.50
24752;BME280;27246;52.376;4.628;2023-02-07T22:59:26;103836.97;;;2.39;74.80
24752;BME280;27246;52.376;4.628;2023-02-07T23:04:28;103857.31;;;2.29;75.09
24752;BME280;27246;52.376;4.628;2023-02-07T23:09:30;103852.84;;;2.28;75.07
24752;BME280;27246;52.376;4.628;2023-02-07T23:14:38;103851.03;;;2.27;74.98
24752;BME280;27246;52.376;4.628;2023-02-07T23:19:46;103852.00;;;2.26;75.17
24752;BME280;27246;52.376;4.628;2023-02-07T23:24:48;103852.53;;;2.10;75.14
24752;BME280;27246;52.376;4.628;2023-02-07T23:29:50;103850.44;;;1.93;75.71
24752;BME280;27246;52.376;4.628;2023-02-07T23:34:52;103855.44;;;2.06;75.75
24752;BME280;27246;52.376;4.628;2023-02-07T23:39:55;103853.88;;;2.24;75.45
24752;BME280;27246;52.376;4.628;2023-02-07T23:44:57;103850.09;;;2.28;75.64
24752;BME280;27246;52.376;4.628;2023-02-07T23:49:58;103832.13;;;2.24;74.95
24752;BME280;27246;52.376;4.628;2023-02-07T23:55:00;103835.00;;;2.19;75.47
